Flight Track Log - Related Links

Times and Time Zones

All times are in EDT time to prevent confusion due to time zone crossing. See the SLI2070 flight status page for this flight to view local times or setup timezone preferences in your user account.

Time Position Orientation Groundspeed Altitude Reporting Facility
EDT Latitude Longitude Course Direction KTS MPH feet Rate Location/Type
Mon 10:58:00 AM 20.0566 -100.4447 296° West  Level Estimated
Mon 10:59:00 AM 20.1039 -100.5508 295° West  Level Estimated
Mon 11:00:00 AM 20.1511 -100.6569 295° West  Level Estimated
Mon 11:01:00 AM 20.1982 -100.7630 295° West  Level Estimated
Mon 11:02:00 AM 20.2453 -100.8693 295° West  Level Estimated
Mon 11:03:00 AM 20.2923 -100.9756 295° West  Level Estimated
Mon 11:04:00 AM 20.3393 -101.0819 295° West  Level Estimated
Mon 11:05:00 AM 20.3862 -101.1883 295° West  Level Estimated
Mon 11:06:00 AM 20.4330 -101.2948 295° West  Level Estimated
Mon 11:07:00 AM 20.4798 -101.4014 295° West  Level Estimated
Mon 11:08:00 AM 20.5265 -101.5080 295° West  Level Estimated
Mon 11:09:00 AM 20.5731 -101.6146 295° West  Level Estimated
Mon 11:10:00 AM 20.6197 -101.7214 295° West  Level Estimated
Mon 11:11:00 AM 20.6662 -101.8282 295° West  Level Estimated
Mon 11:12:00 AM 20.7126 -101.9351 295° West  Level Estimated
Mon 11:13:00 AM 20.7590 -102.0420 295° West  Level Estimated
Mon 11:14:00 AM 20.8053 -102.1490 295° West  Level Estimated
Mon 11:15:00 AM 20.8516 -102.2561 295° West  Level Estimated
Mon 11:16:00 AM 20.8977 -102.3632 295° West  Level Estimated
Mon 11:17:00 AM 20.9438 -102.4704 295° West  Level Estimated
Mon 11:18:00 AM 20.9899 -102.5777 295° West  Level Estimated
Mon 11:19:00 AM 21.0359 -102.6850 295° West  Level Estimated
Mon 11:20:00 AM 21.0818 -102.7924 295° West  Level Estimated
Mon 11:21:00 AM 21.1276 -102.8999 295° West  Level Estimated
Mon 11:22:00 AM 21.1734 -103.0074 295° West  Level Estimated
Mon 11:23:00 AM 21.2191 -103.1150 295° West  Level Estimated
Mon 11:24:00 AM 21.2647 -103.2227 294° West  Level Estimated
Mon 11:25:00 AM 21.3102 -103.3304 294° West  Level Estimated
Mon 11:26:00 AM 21.3557 -103.4382 294° West  Level Estimated
Mon 11:27:00 AM 21.4012 -103.5461 294° West  Level Estimated
Mon 11:28:00 AM 21.4465 -103.6540 294° West  Level Estimated
Mon 11:29:00 AM 21.4918 -103.7620 294° West  Level Estimated
Mon 11:30:00 AM 21.5371 -103.8701 294° West  Level Estimated
Mon 11:31:00 AM 21.5822 -103.9782 294° West  Level Estimated
Mon 11:32:00 AM 21.6273 -104.0864 294° West  Level Estimated
Mon 11:33:00 AM 21.6723 -104.1947 294° West  Level Estimated
Mon 11:34:00 AM 21.7172 -104.3030 294° West  Level Estimated
Mon 11:35:00 AM 21.7621 -104.4115 294° West  Level Estimated
Mon 11:36:00 AM 21.8069 -104.5199 294° West  Level Estimated
Mon 11:37:00 AM 21.8516 -104.6285 294° West  Level Estimated
Mon 11:38:00 AM 21.8963 -104.7371 294° West  Level Estimated
Mon 11:39:00 AM 21.9409 -104.8457 294° West  Level Estimated
Mon 11:40:00 AM 21.9854 -104.9545 294° West  Level Estimated
Mon 11:41:00 AM 22.0298 -105.0633 294° West  Level Estimated
Mon 11:42:00 AM 22.0742 -105.1722 294° West  Level Estimated
Mon 11:43:00 AM 22.1185 -105.2811 294° West  Level Estimated
Mon 11:44:00 AM 22.1627 -105.3902 294° West  Level Estimated
Mon 11:45:00 AM 22.2069 -105.4993 294° West  Level Estimated
Mon 11:46:00 AM 22.2510 -105.6084 294° West  Level Estimated
Mon 11:47:00 AM 22.2950 -105.7176 294° West  Level Estimated
Mon 11:48:00 AM 22.3389 -105.8269 294° West  Level Estimated
Mon 11:49:00 AM 22.3828 -105.9363 293° West  Level Estimated
Mon 11:50:00 AM 22.4265 -106.0457 293° West  Level Estimated
Mon 11:51:00 AM 22.4703 -106.1552 293° West  Level Estimated
Mon 11:52:00 AM 22.5139 -106.2648 293° West  Level Estimated
Mon 11:53:00 AM 22.5575 -106.3744 293° West  Level Estimated
Mon 11:54:00 AM 22.6010 -106.4841 293° West  Level Estimated
Mon 11:55:00 AM 22.6444 -106.5939 293° West  Level Estimated
Mon 11:56:00 AM 22.6877 -106.7038 293° West  Level Estimated
Mon 11:57:00 AM 22.7310 -106.8137 293° West  Level Estimated
Mon 11:58:00 AM 22.7742 -106.9237 293° West  Level Estimated
Mon 11:59:00 AM 22.8173 -107.0337 293° West  Level Estimated
Mon 12:00:00 PM 22.8603 -107.1438 293° West  Level Estimated
Mon 12:01:00 PM 22.9033 -107.2540 293° West  Level Estimated
Mon 12:02:00 PM 22.9462 -107.3643 293° West  Level Estimated
Mon 12:03:00 PM 22.9890 -107.4746 293° West  Level Estimated
Mon 12:04:00 PM 23.0317 -107.5850 293° West  Level Estimated
Mon 12:05:00 PM 23.0744 -107.6955 293° West  Level Estimated
Mon 12:06:00 PM 23.1170 -107.8060 293° West  Level Estimated
Mon 12:07:00 PM 23.1595 -107.9166 293° West  Level Estimated
Mon 12:08:00 PM 23.2019 -108.0273 293° West  Level Estimated
Mon 12:09:00 PM 23.2443 -108.1381 293° West  Level Estimated
Mon 12:10:00 PM 23.2865 -108.2489 293° West  Level Estimated
Mon 12:11:00 PM 23.3287 -108.3598 293° West  Level Estimated
Mon 12:12:00 PM 23.3708 -108.4707 292° West  Level Estimated
Mon 12:13:00 PM 23.4129 -108.5818 292° West  Level Estimated
Mon 12:14:00 PM 23.4548 -108.6929 292° West  Level Estimated
Mon 12:15:00 PM 23.4967 -108.8041 292° West  Level Estimated
Mon 12:16:00 PM 23.5385 -108.9153 292° West  Level Estimated
Mon 12:17:00 PM 23.5802 -109.0266 292° West  Level Estimated
Mon 12:18:00 PM 23.6219 -109.1380 292° West  Level Estimated
Mon 12:19:00 PM 23.6635 -109.2495 292° West  Level Estimated
Mon 12:20:00 PM 23.7050 -109.3610 292° West  Level Estimated
Mon 12:21:00 PM 23.7464 -109.4726 292° West  Level Estimated
Mon 12:22:00 PM 23.7877 -109.5843 292° West  Level Estimated
Mon 12:23:00 PM 23.8289 -109.6960 292° West  Level Estimated
Mon 12:24:00 PM 23.8701 -109.8078 292° West  Level Estimated
Mon 12:25:00 PM 23.9112 -109.9197 292° West  Level Estimated
Mon 12:26:00 PM 23.9522 -110.0317 292° West  Level Estimated
Mon 12:27:00 PM 23.9931 -110.1437 292° West  Level Estimated
Mon 12:28:00 PM 24.0339 -110.2558 292° West  Level Estimated
Mon 12:29:00 PM 24.0727 -110.3625 292° West  Level Estimated
Mon 12:30:00 PM 24.0727 -110.3625 49° Northeast  Level Estimated
Mon 12:31:00 PM 24.0727 -110.3625 49° Northeast  Level Estimated
Mon 12:32:00 PM 24.0727 -110.3625 49° Northeast  Level Estimated
Mon 12:33:00 PM 24.0727 -110.3625 49° Northeast  Level Estimated
Mon 12:34:00 PM 24.0727 -110.3625 49° Northeast  Level Estimated
Mon 12:35:00 PM 24.0727 -110.3625 49° Northeast  Level Estimated
Mon 12:36:00 PM 24.0727 -110.3625 49° Northeast  Level Estimated
Mon 12:37:00 PM 24.0727 -110.3625 49° Northeast  Level Estimated
Mon 12:38:00 PM 24.0727 -110.3625 49° Northeast  Level Estimated
Mon 12:39:00 PM 24.0727 -110.3625 49° Northeast  Level Estimated
Mon 12:40:00 PM 24.0727 -110.3625 49° Northeast  Level Estimated
Mon 12:41:00 PM 24.0727 -110.3625 49° Northeast  Level Estimated
Mon 12:42:00 PM 24.0727 -110.3625 49° Northeast  Level Estimated
Mon 12:43:00 PM 24.0727 -110.3625 49° Northeast  Level Estimated
Mon 12:44:00 PM 24.0727 -110.3625 49° Northeast  Level Estimated
Mon 12:45:00 PM 24.0727 -110.3625 49° Northeast  Level Estimated

Login

Don't have an account? Register now (free) for customized features, flight alerts, and more!